Time;durP1;ratioP1;P1;durP2;ratioP2;P2;SDS_P1;SDS_P2;PMS_P1;PMS_P2;Temp;Humidity;BMP_temperature;BMP_pressure;BME280_temperature;BME280_humidity;BME280_pressure;Samples;Min_cycle;Max_cycle;Signal;HPM_P1;HPM_P2
2022/05/26 00:01:12;;;;;;;14.23;4.93;;;;;;;;;;6155780;23;20009;-66
2022/05/26 00:03:39;;;;;;;13.52;4.47;;;;;;;;;;6155836;23;20024;-66
2022/05/26 00:06:06;;;;;;;18.58;5.18;;;;;;;;;;6129540;23;20501;-68
2022/05/26 00:08:32;;;;;;;10.30;4.85;;;;;;;;;;6155472;23;19998;-70
2022/05/26 00:10:59;;;;;;;11.88;4.00;;;;;;;;;;6155715;23;20006;-65
2022/05/26 00:13:25;;;;;;;10.77;4.72;;;;;;;;;;6155712;23;20010;-64
2022/05/26 00:15:51;;;;;;;7.13;4.57;;;;;;;;;;6155592;23;20006;-71
2022/05/26 00:18:17;;;;;;;11.23;4.72;;;;;;;;;;6155559;23;20008;-71
2022/05/26 00:20:44;;;;;;;7.03;4.70;;;;;;;;;;6155507;23;20081;-71
2022/05/26 00:23:10;;;;;;;7.43;4.30;;;;;;;;;;6155330;23;20005;-71
2022/05/26 00:25:36;;;;;;;7.38;4.10;;;;;;;;;;6155607;23;20378;-71
2022/05/26 00:28:02;;;;;;;10.23;5.05;;;;;;;;;;6155592;23;20331;-71
2022/05/26 00:30:28;;;;;;;10.35;5.05;;;;;;;;;;6155422;23;20326;-68
2022/05/26 00:32:54;;;;;;;8.65;4.88;;;;;;;;;;6155473;23;19997;-68
2022/05/26 00:35:20;;;;;;;8.48;4.82;;;;;;;;;;6129229;23;20158;-67
2022/05/26 00:37:46;;;;;;;15.95;5.40;;;;;;;;;;6155471;23;20068;-67
2022/05/26 00:40:14;;;;;;;8.45;4.88;;;;;;;;;;6155478;23;20481;-69
2022/05/26 00:42:40;;;;;;;7.53;5.28;;;;;;;;;;6156139;23;20006;-69
2022/05/26 00:45:07;;;;;;;9.13;5.32;;;;;;;;;;6157532;23;20452;-72
2022/05/26 00:47:35;;;;;;;9.07;5.50;;;;;;;;;;6157632;23;20094;-72
2022/05/26 00:50:20;;;;;;;8.50;5.40;;;;;;;;;;6157310;23;20436;-70
2022/05/26 00:53:07;;;;;;;12.65;4.95;;;;;;;;;;6157487;23;20009;-71
2022/05/26 00:55:36;;;;;;;15.95;5.43;;;;;;;;;;6157522;23;19997;-67
2022/05/26 00:58:05;;;;;;;8.50;5.13;;;;;;;;;;6157597;23;20040;-70
2022/05/26 01:00:34;;;;;;;11.23;4.90;;;;;;;;;;6157262;23;20008;-71
2022/05/26 01:03:08;;;;;;;7.78;5.03;;;;;;;;;;6157598;23;20005;-71
2022/05/26 01:05:52;;;;;;;9.88;5.15;;;;;;;;;;6157087;23;20439;-71
2022/05/26 01:08:22;;;;;;;8.02;5.28;;;;;;;;;;6157609;23;20005;-72
2022/05/26 01:10:48;;;;;;;5.80;5.05;;;;;;;;;;6157051;23;20010;-69
2022/05/26 01:13:16;;;;;;;9.95;5.60;;;;;;;;;;6157249;23;20001;-68
2022/05/26 01:15:47;;;;;;;7.35;5.28;;;;;;;;;;6157173;23;20008;-71
2022/05/26 01:18:23;;;;;;;8.70;5.72;;;;;;;;;;6157432;23;20002;-71
2022/05/26 01:21:07;;;;;;;12.02;6.05;;;;;;;;;;6157120;23;20005;-69
2022/05/26 01:23:42;;;;;;;8.07;5.85;;;;;;;;;;6157213;23;20006;-71
2022/05/26 01:26:27;;;;;;;8.07;6.03;;;;;;;;;;6156881;23;19994;-71
2022/05/26 01:28:56;;;;;;;9.32;7.18;;;;;;;;;;6157328;23;20010;-69
2022/05/26 01:31:34;;;;;;;10.88;8.05;;;;;;;;;;6156845;23;20049;-71
2022/05/26 01:34:12;;;;;;;10.63;8.48;;;;;;;;;;6157486;23;20001;-71
2022/05/26 01:36:47;;;;;;;12.57;8.57;;;;;;;;;;6156804;23;20429;-71
2022/05/26 01:39:25;;;;;;;9.38;8.38;;;;;;;;;;6156938;23;20005;-71
2022/05/26 01:42:00;;;;;;;9.68;8.38;;;;;;;;;;6157443;23;20012;-71
2022/05/26 01:44:36;;;;;;;11.68;9.10;;;;;;;;;;6157064;23;20048;-70
2022/05/26 01:47:05;;;;;;;10.65;8.88;;;;;;;;;;6156966;23;20002;-73
2022/05/26 01:49:43;;;;;;;12.18;9.02;;;;;;;;;;6157187;23;20052;-71
2022/05/26 01:52:14;;;;;;;10.65;9.02;;;;;;;;;;6156950;23;20008;-66
2022/05/26 01:54:49;;;;;;;11.70;9.05;;;;;;;;;;6156264;23;20005;-63
2022/05/26 01:57:19;;;;;;;11.20;9.27;;;;;;;;;;6156908;23;20057;-65
2022/05/26 01:59:48;;;;;;;11.45;8.63;;;;;;;;;;6156692;23;20002;-65
2022/05/26 02:02:19;;;;;;;13.38;8.75;;;;;;;;;;6156897;23;20029;-63
2022/05/26 02:04:50;;;;;;;10.20;9.20;;;;;;;;;;6156791;23;19997;-62
2022/05/26 02:07:42;;;;;;;14.35;10.27;;;;;;;;;;6156596;23;20433;-63
2022/05/26 02:10:15;;;;;;;12.05;9.40;;;;;;;;;;6150135;23;20017;-65
2022/05/26 02:12:43;;;;;;;12.02;10.30;;;;;;;;;;6157274;23;20006;-64
2022/05/26 02:15:16;;;;;;;11.95;9.75;;;;;;;;;;6156674;23;20002;-63
2022/05/26 02:17:46;;;;;;;16.17;10.57;;;;;;;;;;6156727;23;20001;-65
2022/05/26 02:20:12;;;;;;;12.93;10.05;;;;;;;;;;6156555;23;20080;-63
2022/05/26 02:22:49;;;;;;;13.82;10.18;;;;;;;;;;6156546;23;20032;-65
2022/05/26 02:25:16;;;;;;;12.77;10.55;;;;;;;;;;6156800;23;20051;-63
2022/05/26 02:27:42;;;;;;;14.95;10.48;;;;;;;;;;6156710;23;20001;-63
2022/05/26 02:30:12;;;;;;;11.95;10.30;;;;;;;;;;6156180;23;20010;-64
2022/05/26 02:32:43;;;;;;;14.98;10.07;;;;;;;;;;6156753;23;20061;-63
2022/05/26 02:35:18;;;;;;;13.82;10.10;;;;;;;;;;6156610;23;20002;-63
2022/05/26 02:37:47;;;;;;;12.40;9.73;;;;;;;;;;6156522;23;20040;-63
2022/05/26 02:40:13;;;;;;;11.13;9.82;;;;;;;;;;6156491;23;20001;-63
2022/05/26 02:42:43;;;;;;;11.68;9.63;;;;;;;;;;6130534;23;20006;-63
2022/05/26 02:45:11;;;;;;;11.07;9.82;;;;;;;;;;6156396;23;20064;-64
2022/05/26 02:47:43;;;;;;;10.18;9.13;;;;;;;;;;6156384;23;20084;-63
2022/05/26 02:50:18;;;;;;;11.32;9.05;;;;;;;;;;6156167;23;20010;-66
2022/05/26 02:52:44;;;;;;;20.70;9.50;;;;;;;;;;6156472;23;20025;-64
2022/05/26 02:55:20;;;;;;;9.32;7.45;;;;;;;;;;6156525;23;20429;-63
2022/05/26 02:57:49;;;;;;;9.90;7.65;;;;;;;;;;6156329;23;20373;-64
2022/05/26 03:00:18;;;;;;;11.65;7.95;;;;;;;;;;6156152;23;19998;-64
2022/05/26 03:02:53;;;;;;;8.27;7.47;;;;;;;;;;6156331;23;20425;-63
2022/05/26 03:05:28;;;;;;;8.93;7.22;;;;;;;;;;6155841;23;19997;-64
2022/05/26 03:07:57;;;;;;;7.88;6.30;;;;;;;;;;6156156;23;20006;-66
2022/05/26 03:10:27;;;;;;;9.13;6.45;;;;;;;;;;6156008;23;20049;-64
2022/05/26 03:12:54;;;;;;;18.95;6.60;;;;;;;;;;6156681;23;20008;-65
2022/05/26 03:15:21;;;;;;;8.38;6.05;;;;;;;;;;6156259;23;20013;-67
2022/05/26 03:17:47;;;;;;;7.45;5.80;;;;;;;;;;6156365;23;20032;-64
2022/05/26 03:20:13;;;;;;;11.07;5.85;;;;;;;;;;6156188;23;20029;-63
2022/05/26 03:22:39;;;;;;;11.65;5.70;;;;;;;;;;6156268;23;20313;-66
2022/05/26 03:25:06;;;;;;;6.03;5.38;;;;;;;;;;6156200;23;20008;-64
2022/05/26 03:27:32;;;;;;;8.45;5.60;;;;;;;;;;6156021;23;20009;-64
2022/05/26 03:29:59;;;;;;;5.70;4.97;;;;;;;;;;6155830;23;20009;-66
2022/05/26 03:32:25;;;;;;;10.82;5.90;;;;;;;;;;6156195;23;20005;-65
2022/05/26 03:43:07;;;;;;;7.63;4.97;;;;;;;;;;6155864;23;20479;-64
2022/05/26 03:45:34;;;;;;;10.70;5.68;;;;;;;;;;6155758;23;20002;-64
2022/05/26 03:48:00;;;;;;;4.85;4.32;;;;;;;;;;6156114;23;20005;-67
2022/05/26 03:50:27;;;;;;;6.15;4.50;;;;;;;;;;6155760;23;20136;-66
2022/05/26 03:52:53;;;;;;;7.32;4.10;;;;;;;;;;6155768;23;20002;-65
2022/05/26 03:55:20;;;;;;;7.75;3.90;;;;;;;;;;6155627;23;20072;-65
2022/05/26 03:57:46;;;;;;;4.38;3.42;;;;;;;;;;6156058;23;20057;-67
2022/05/26 04:00:13;;;;;;;5.40;3.58;;;;;;;;;;6155654;23;20009;-68
2022/05/26 04:02:39;;;;;;;4.78;3.35;;;;;;;;;;6155669;23;20386;-65
2022/05/26 04:05:05;;;;;;;5.03;3.30;;;;;;;;;;6156043;23;20005;-64
2022/05/26 04:07:31;;;;;;;5.35;2.90;;;;;;;;;;6155795;23;20362;-63
2022/05/26 04:09:57;;;;;;;10.43;3.75;;;;;;;;;;6155430;23;20087;-64
2022/05/26 04:12:24;;;;;;;9.98;3.10;;;;;;;;;;6155463;23;20009;-63
2022/05/26 04:14:50;;;;;;;4.47;2.60;;;;;;;;;;6155853;23;20089;-68
2022/05/26 04:17:16;;;;;;;3.28;2.90;;;;;;;;;;6155778;23;20303;-66
2022/05/26 04:19:42;;;;;;;7.13;2.95;;;;;;;;;;6155557;23;20006;-66
2022/05/26 04:22:15;;;;;;;7.68;3.10;;;;;;;;;;6155642;23;20444;-65
2022/05/26 04:24:41;;;;;;;7.32;3.20;;;;;;;;;;6155925;23;20016;-64
2022/05/26 04:27:08;;;;;;;4.50;2.97;;;;;;;;;;6155613;23;20125;-64
2022/05/26 04:29:35;;;;;;;7.20;3.38;;;;;;;;;;6155392;23;20009;-64
2022/05/26 04:32:01;;;;;;;8.98;2.90;;;;;;;;;;6155056;23;20017;-70
2022/05/26 04:34:27;;;;;;;5.13;2.75;;;;;;;;;;6155811;23;20373;-71
2022/05/26 04:36:54;;;;;;;4.72;2.85;;;;;;;;;;6155433;23;20005;-69
2022/05/26 04:39:20;;;;;;;6.63;2.80;;;;;;;;;;6155125;23;20002;-71
2022/05/26 04:41:46;;;;;;;3.03;2.42;;;;;;;;;;6155854;23;20016;-71
2022/05/26 04:44:14;;;;;;;15.23;3.88;;;;;;;;;;6155566;23;20056;-71
2022/05/26 04:46:40;;;;;;;5.10;2.50;;;;;;;;;;6155725;23;20350;-70
2022/05/26 04:49:06;;;;;;;3.80;3.20;;;;;;;;;;6155575;23;20016;-71
2022/05/26 04:51:34;;;;;;;5.85;2.60;;;;;;;;;;6155437;23;20370;-71
2022/05/26 04:54:00;;;;;;;6.30;2.50;;;;;;;;;;6155247;23;19998;-71
2022/05/26 04:56:27;;;;;;;4.75;2.35;;;;;;;;;;6155638;23;20029;-69
2022/05/26 04:58:53;;;;;;;6.55;3.00;;;588.90;2432.00;;;;;;6155730;23;20318;-70
2022/05/26 05:01:20;;;;;;;5.45;2.50;;;588.90;2432.00;;;;;;6155436;23;20008;-72
2022/05/26 05:03:49;;;;;;;11.32;3.05;;;588.90;2432.00;;;;;;6155324;23;20026;-71
2022/05/26 05:06:16;;;;;;;4.82;2.80;;;589.00;2432.00;;;;;;6155249;23;20002;-71
2022/05/26 05:08:43;;;;;;;10.43;3.38;;;589.00;2432.00;;;;;;6155269;23;20001;-66
2022/05/26 05:11:12;;;;;;;8.73;2.75;;;;;;;;;;6155600;23;20013;-71
2022/05/26 05:13:39;;;;;;;3.33;2.22;;;;;;;;;;6155285;23;20008;-72
2022/05/26 05:16:05;;;;;;;9.65;2.50;;;;;;;;;;6155384;23;20001;-70
2022/05/26 05:18:32;;;;;;;5.57;2.80;;;;;;;;;;6155384;23;20002;-71
2022/05/26 05:21:01;;;;;;;6.68;2.70;;;;;;;;;;6129056;23;20414;-71
2022/05/26 05:23:28;;;;;;;8.45;2.47;;;;;;;;;;6155325;23;20002;-70
2022/05/26 05:25:56;;;;;;;5.40;2.72;;;589.50;2432.00;;;;;;6155170;23;20005;-70
2022/05/26 05:28:28;;;;;;;6.38;2.50;;;589.50;2432.00;;;;;;6155232;23;20025;-72
2022/05/26 05:31:26;;;;;;;11.10;3.30;;;589.50;2432.00;;;;;;6156612;23;20021;-72
2022/05/26 05:34:01;;;;;;;16.08;3.95;;;589.50;2432.00;;;;;;6150861;23;20009;-72
2022/05/26 05:36:33;;;;;;;5.40;2.20;;;589.60;2432.00;;;;;;6157098;23;20028;-72
2022/05/26 05:39:00;;;;;;;8.90;2.60;;;589.50;2432.00;;;;;;6156901;23;20008;-72
2022/05/26 05:41:27;;;;;;;9.90;2.47;;;589.60;2432.00;;;;;;6157086;23;20016;-72
2022/05/26 05:43:55;;;;;;;11.60;3.00;;;589.40;2432.00;;;;;;6156973;23;20005;-72
2022/05/26 05:46:21;;;;;;;9.95;2.53;;;589.50;2432.00;;;;;;6157300;23;20386;-69
2022/05/26 05:48:48;;;;;;;7.80;2.47;;;589.40;2432.00;;;;;;6157372;23;20002;-67
2022/05/26 05:51:15;;;;;;;6.28;2.30;;;589.60;2432.00;;;;;;6156522;23;20019;-71
2022/05/26 05:53:45;;;;;;;14.05;3.15;;;;;;;;;;6157000;23;20340;-70
2022/05/26 05:56:11;;;;;;;6.45;3.05;;;;;;;;;;6156830;23;20060;-71
2022/05/26 05:58:37;;;;;;;11.07;3.40;;;;;;;;;;6157012;23;20001;-71
2022/05/26 06:01:05;;;;;;;7.60;2.22;;;;;;;;;;6157013;23;20032;-71
2022/05/26 06:03:32;;;;;;;6.40;2.10;;;;;;;;;;6157107;23;19994;-71
2022/05/26 06:05:59;;;;;;;2.25;2.03;;;;;;;;;;6157234;23;20012;-72
2022/05/26 06:08:25;;;;;;;7.13;2.40;;;;;;;;;;6156741;23;20056;-71
2022/05/26 06:10:52;;;;;;;9.23;2.20;;;;;;;;;;6156423;23;20028;-71
2022/05/26 06:13:18;;;;;;;6.72;2.25;;;;;;;;;;6156784;23;20037;-67
2022/05/26 06:15:46;;;;;;;7.57;2.70;;;;;;;;;;6156706;23;20008;-65
2022/05/26 06:18:12;;;;;;;13.30;4.00;;;;;;;;;;6156763;23;20056;-72
2022/05/26 06:20:38;;;;;;;9.82;5.20;;;;;;;;;;6156513;23;20047;-71
2022/05/26 06:23:05;;;;;;;5.30;2.55;;;;;;;;;;6156402;23;20013;-68
2022/05/26 06:25:31;;;;;;;12.68;2.40;;;;;;;;;;6156583;23;20012;-66
2022/05/26 06:30:42;;;;;;;5.05;3.00;;;;;;;;;;6156017;23;20072;-64
2022/05/26 06:38:40;;;;;;;9.13;2.95;;;;;;;;;;6156243;23;20021;-71
2022/05/26 06:43:54;;;;;;;7.35;2.60;;;;;;;;;;6156433;23;20452;-71
2022/05/26 06:46:20;;;;;;;10.57;2.67;;;;;;;;;;6156366;23;20033;-67
2022/05/26 06:48:47;;;;;;;6.22;2.90;;;;;;;;;;6156159;23;20429;-71
2022/05/26 06:51:13;;;;;;;7.88;2.35;;;;;;;;;;6156369;23;20005;-67
2022/05/26 06:53:39;;;;;;;7.68;2.08;;;;;;;;;;6155994;23;20002;-70
2022/05/26 06:56:06;;;;;;;6.18;2.38;;;;;;;;;;6156244;23;20029;-66
2022/05/26 06:58:32;;;;;;;3.08;2.10;;;640.90;2150.40;;;;;;6156507;23;20021;-67
2022/05/26 07:00:58;;;;;;;5.57;2.40;;;640.80;2150.40;;;;;;6156328;23;20005;-71
2022/05/26 07:03:25;;;;;;;2.63;1.92;;;640.70;2099.20;;;;;;6156401;23;20006;-70
2022/05/26 07:05:52;;;;;;;2.92;1.90;;;640.80;2073.60;;;;;;6156054;23;20414;-68
2022/05/26 07:08:18;;;;;;;10.52;3.25;;;640.70;2073.60;;;;;;6155837;23;20005;-72
2022/05/26 07:10:46;;;;;;;13.20;3.22;;;640.80;2073.60;;;;;;6155925;23;20352;-71
2022/05/26 07:13:14;;;;;;;9.65;2.95;;;640.70;2099.20;;;;;;6156422;23;20017;-69
2022/05/26 07:15:40;;;;;;;9.60;3.00;;;640.80;2073.60;;;;;;6156083;23;20009;-72
2022/05/26 07:18:07;;;;;;;3.90;2.30;;;640.80;2073.60;;;;;;6156160;23;19998;-72
2022/05/26 07:20:36;;;;;;;2.05;1.70;;;640.90;2073.60;;;;;;6155997;23;20002;-64
2022/05/26 07:23:08;;;;;;;10.40;3.00;;;640.90;2048.00;;;;;;6155932;23;20005;-71
2022/05/26 07:25:34;;;;;;;9.00;2.72;;;665.60;2124.80;;;;;;6156281;23;20005;-71
2022/05/26 07:28:00;;;;;;;5.38;2.55;;;665.70;2073.60;;;;;;6155949;23;20005;-71
2022/05/26 07:30:26;;;;;;;17.38;3.63;;;665.70;2073.60;;;;;;6155680;23;20018;-69
2022/05/26 07:32:52;;;;;;;9.52;3.00;;;;;;;;;;6155711;23;20005;-71
2022/05/26 07:35:18;;;;;;;25.70;3.30;;;;;;;;;;6155946;23;20437;-70
2022/05/26 07:43:14;;;;;;;12.23;3.00;;;;;;;;;;6155758;23;20470;-70
2022/05/26 07:45:40;;;;;;;10.00;2.40;;;;;;;;;;6155728;23;20222;-68
2022/05/26 07:48:07;;;;;;;15.82;3.67;;;;;;;;;;6155720;23;20443;-70
2022/05/26 07:50:33;;;;;;;6.43;2.80;;;;;;;;;;6155569;23;20020;-71
2022/05/26 07:52:59;;;;;;;9.52;2.58;;;;;;;;;;6155787;23;20002;-69
2022/05/26 07:55:25;;;;;;;2.55;1.70;;;;;;;;;;6155554;23;20012;-68
2022/05/26 07:57:53;;;;;;;4.03;2.22;;;;;;;;;;6155613;23;20010;-66
2022/05/26 08:00:19;;;;;;;8.07;2.85;;;;;;;;;;6129275;23;20092;-67
2022/05/26 08:02:45;;;;;;;5.18;2.10;;;;;;;;;;6155437;23;20005;-64
2022/05/26 08:05:12;;;;;;;3.25;2.80;;;;;;;;;;6129152;23;20378;-65
2022/05/26 08:07:38;;;;;;;4.80;2.95;;;;;;;;;;6155741;23;20329;-65
2022/05/26 08:10:05;;;;;;;5.28;2.50;;;;;;;;;;6155524;23;20092;-64
2022/05/26 08:12:31;;;;;;;5.70;2.20;;;;;;;;;;6155798;23;20018;-64
2022/05/26 08:14:57;;;;;;;22.27;4.22;;;;;;;;;;6155592;23;20006;-67
2022/05/26 08:17:24;;;;;;;12.88;3.00;;;;;;;;;;6155583;23;20091;-66
2022/05/26 08:19:50;;;;;;;13.98;5.00;;;;;;;;;;6155229;23;20012;-65
2022/05/26 08:22:17;;;;;;;4.32;2.05;;;;;;;;;;6155820;23;20072;-68
2022/05/26 08:24:49;;;;;;;4.40;2.65;;;;;;;;;;6155461;23;20005;-71
2022/05/26 08:27:15;;;;;;;10.43;2.15;;;;;;;;;;6155612;23;20051;-71
2022/05/26 08:29:41;;;;;;;22.05;4.47;;;;;;;;;;6155481;23;20017;-68
2022/05/26 08:32:08;;;;;;;7.13;2.35;;;;;;;;;;6155244;23;20109;-71
2022/05/26 08:34:34;;;;;;;5.18;2.63;;;;;;;;;;6155185;23;20005;-66
2022/05/26 08:37:02;;;;;;;4.10;2.08;;;;;;;;;;6155269;23;19997;-67
2022/05/26 08:39:28;;;;;;;4.38;1.95;;;;;;;;;;6155564;23;20329;-69
2022/05/26 08:41:56;;;;;;;27.38;5.63;;;;;;;;;;6155530;23;20373;-71
2022/05/26 08:44:37;;;;;;;7.75;2.92;;;;;;;;;;6155314;23;20005;-70
2022/05/26 08:47:03;;;;;;;;;;;;;;;;;;6155789;23;20009;-69
2022/05/26 08:49:51;;;;;;;14.77;3.00;;;;;;;;;;6155128;23;19963;-71
2022/05/26 08:52:20;;;;;;;23.10;4.65;;;;;;;;;;6155184;23;20333;-67
2022/05/26 08:54:49;;;;;;;4.50;2.38;;;;;;;;;;6155080;23;20001;-72
2022/05/26 08:57:17;;;;;;;6.57;2.80;;;;;;;;;;6155320;23;20001;-69
2022/05/26 08:59:45;;;;;;;2.95;1.52;;;;;;;;;;6154947;23;20006;-72
2022/05/26 09:02:29;;;;;;;9.02;2.75;;;;;;;;;;6155295;23;20077;-70
2022/05/26 09:05:03;;;;;;;7.82;2.25;;;;;;;;;;6156458;23;20001;-72
2022/05/26 09:13:26;;;;;;;4.68;2.40;;;;;;;;;;6038370;23;20018;-72
2022/05/26 09:15:52;;;;;;;2.17;1.50;;;;;;;;;;6038458;23;20457;-72
2022/05/26 09:18:20;;;;;;;3.00;2.05;;;;;;;;;;6038433;23;20037;-69
2022/05/26 09:20:47;;;;;;;11.00;2.40;;;;;;;;;;6038319;23;20007;-71
2022/05/26 09:23:24;;;;;;;1.80;1.50;;;;;;;;;;6038253;23;20035;-72
2022/05/26 09:25:55;;;;;;;3.58;1.77;;;;;;;;;;6038339;23;20018;-72
2022/05/26 09:28:33;;;;;;;2.47;1.45;;;;;;;;;;6038462;23;20011;-68
2022/05/26 09:31:31;;;;;;;9.07;2.88;;;;;;;;;;6037842;23;20471;-71
2022/05/26 09:34:15;;;;;;;8.80;2.42;;;;;;;;;;5926179;24;20363;-72
2022/05/26 09:36:44;;;;;;;12.90;2.90;;;;;;;;;;5926304;24;20051;-70
2022/05/26 09:39:11;;;;;;;6.80;2.92;;;;;;;;;;5926230;24;20012;-71
2022/05/26 09:41:41;;;;;;;5.97;3.47;;;;;;;;;;5925925;24;20069;-72
2022/05/26 09:44:20;;;;;;;7.13;2.08;;;;;;;;;;5926353;24;20087;-72
2022/05/26 09:46:49;;;;;;;4.25;2.65;;;;;;;;;;5926037;24;20470;-71
2022/05/26 09:49:15;;;;;;;11.63;2.22;;;;;;;;;;5940368;23;20018;-71
2022/05/26 09:51:43;;;;;;;1.48;1.38;;;;;;;;;;6009810;23;20090;-69
2022/05/26 09:54:30;;;;;;;6.07;2.00;;;;;;;;;;6009750;23;20039;-72
2022/05/26 09:56:57;;;;;;;2.88;1.35;;;;;;;;;;6009493;23;20005;-72
2022/05/26 09:59:25;;;;;;;4.07;1.85;;;;;;;;;;6009592;23;20502;-72
2022/05/26 10:01:57;;;;;;;2.45;1.90;;;;;;;;;;6009344;23;20589;-69
2022/05/26 10:04:23;;;;;;;5.05;2.58;;;;;;;;;;6009635;23;20092;-70
2022/05/26 10:06:55;;;;;;;10.32;2.00;;;;;;;;;;6009501;23;20012;-70
2022/05/26 10:09:40;;;;;;;2.03;1.80;;;;;;;;;;6072596;23;20472;-72
2022/05/26 10:12:11;;;;;;;2.38;1.65;;;;;;;;;;6156663;23;20009;-73
2022/05/26 10:14:38;;;;;;;8.38;2.38;;;;;;;;;;6156897;23;20108;-73
2022/05/26 10:17:10;;;;;;;11.68;5.72;;;;;;;;;;6156233;23;20001;-71
2022/05/26 10:19:48;;;;;;;5.35;2.15;;;;;;;;;;6156489;23;19998;-71
2022/05/26 10:22:17;;;;;;;5.75;2.10;;;;;;;;;;6156579;23;20492;-73
2022/05/26 10:24:49;;;;;;;7.80;3.63;;;;;;;;;;6156843;23;20340;-74
2022/05/26 10:27:21;;;;;;;7.13;2.42;;;;;;;;;;6157254;23;20306;-73
2022/05/26 10:30:05;;;;;;;10.88;2.63;;;;;;;;;;6156655;23;20088;-71
2022/05/26 10:32:41;;;;;;;3.67;2.45;;;;;;;;;;6156300;23;20021;-67
2022/05/26 10:35:07;;;;;;;5.00;1.90;;;;;;;;;;6156426;23;20077;-69
2022/05/26 10:37:36;;;;;;;2.22;1.45;;;;;;;;;;6156586;23;20002;-71
2022/05/26 10:40:21;;;;;;;3.50;1.55;;;;;;;;;;6156128;23;19997;-68
2022/05/26 10:42:50;;;;;;;2.58;1.50;;;;;;;;;;6156549;23;20005;-65
2022/05/26 10:45:20;;;;;;;4.15;2.10;;;;;;;;;;6156060;23;20021;-72
2022/05/26 10:47:58;;;;;;;12.52;3.50;;;;;;;;;;6130208;23;20001;-72
2022/05/26 10:50:34;;;;;;;6.82;1.90;;;;;;;;;;6156352;23;20021;-70
2022/05/26 10:53:03;;;;;;;4.80;1.80;;;;;;;;;;6156056;23;20002;-68
2022/05/26 10:55:47;;;;;;;6.72;3.50;;;;;;;;;;6156348;23;20032;-72
2022/05/26 10:58:33;;;;;;;7.35;2.67;;;;;;;;;;6156331;23;20314;-66
2022/05/26 11:01:02;;;;;;;8.18;3.42;;;;;;;;;;6156097;23;20001;-71
2022/05/26 11:03:31;;;;;;;6.07;2.50;;;;;;;;;;6156391;23;20029;-67
2022/05/26 11:06:05;;;;;;;28.60;5.72;;;;;;;;;;6156337;23;20013;-71
2022/05/26 11:08:31;;;;;;;2.00;1.80;;;;;;;;;;6156122;23;19997;-71
2022/05/26 11:11:03;;;;;;;4.22;2.05;;;;;;;;;;6155807;23;20009;-71
2022/05/26 11:13:36;;;;;;;15.32;3.95;;;;;;;;;;6156155;23;20017;-65
2022/05/26 11:18:50;;;;;;;3.10;1.70;;;;;;;;;;6156009;23;20056;-66
2022/05/26 11:21:21;;;;;;;10.63;2.45;;;;;;;;;;6156116;23;20006;-72
2022/05/26 11:23:47;;;;;;;5.93;2.00;;;;;;;;;;6156137;23;20010;-71
2022/05/26 11:26:22;;;;;;;21.60;3.38;;;;;;;;;;6155834;23;20006;-67
2022/05/26 11:28:48;;;;;;;6.20;2.38;;;;;;;;;;6155431;23;20076;-71
2022/05/26 11:37:20;;;;;;;3.47;2.47;;;;;;;;;;6156055;23;20023;-72
2022/05/26 11:39:47;;;;;;;20.70;3.45;;;;;;;;;;6155848;23;20008;-72
2022/05/26 11:42:24;;;;;;;9.75;2.40;;;;;;;;;;6156202;23;20013;-68
2022/05/26 11:45:08;;;;;;;6.53;3.20;;;;;;;;;;6155801;23;20462;-69
2022/05/26 11:47:47;;;;;;;3.72;1.98;;;;;;;;;;6155744;23;20052;-70
2022/05/26 11:50:22;;;;;;;10.43;3.00;;;;;;;;;;6155903;23;20014;-69
2022/05/26 11:52:54;;;;;;;11.25;2.50;;;;;;;;;;6155604;23;20009;-73
2022/05/26 11:55:43;;;;;;;4.38;2.08;;;;;;;;;;6155691;23;20333;-72
2022/05/26 11:58:29;;;;;;;15.85;3.35;;;;;;;;;;6139986;23;20068;-72
2022/05/26 12:01:13;;;;;;;18.33;3.45;;;;;;;;;;6155693;23;20004;-70
2022/05/26 12:03:54;;;;;;;5.22;2.22;;;;;;;;;;6155948;23;20306;-73
2022/05/26 12:06:30;;;;;;;3.92;2.10;;;;;;;;;;6155627;23;20430;-67
2022/05/26 12:09:08;;;;;;;3.70;2.47;;;;;;;;;;6155668;23;20325;-71
2022/05/26 12:11:50;;;;;;;20.08;5.10;;;;;;;;;;6155674;23;20340;-73
2022/05/26 12:14:31;;;;;;;14.32;3.85;;;;;;;;;;6155520;23;20337;-71
2022/05/26 12:17:16;;;;;;;8.20;2.55;;;;;;;;;;6155517;23;20002;-70
2022/05/26 12:19:44;;;;;;;9.90;2.95;;;;;;;;;;6155556;23;19994;-70
2022/05/26 12:22:21;;;;;;;21.33;3.22;;;;;;;;;;6155615;23;20060;-73
2022/05/26 12:24:51;;;;;;;4.03;2.65;;;;;;;;;;6155700;23;20060;-69
2022/05/26 12:27:17;;;;;;;;;;;;;;;;;;6156452;23;20314;-68
2022/05/26 12:30:04;;;;;;;19.05;4.63;;;;;;;;;;6155205;23;19909;-73
2022/05/26 12:32:32;;;;;;;21.17;4.28;;;;;;;;;;6155173;23;20318;-73
2022/05/26 12:35:17;;;;;;;11.30;2.15;;;;;;;;;;6155275;23;20085;-71
2022/05/26 12:37:46;;;;;;;10.82;2.97;;;;;;;;;;6155623;23;20080;-73
2022/05/26 12:40:27;;;;;;;17.40;3.67;;;;;;;;;;6154897;23;20001;-70
2022/05/26 12:43:14;;;;;;;6.07;2.53;;;;;;;;;;6155918;23;20325;-73
2022/05/26 12:45:51;;;;;;;8.35;2.92;;;;;;;;;;6154466;23;20093;-73
2022/05/26 12:48:37;;;;;;;7.93;2.90;;;;;;;;;;6155243;23;20080;-72
2022/05/26 12:51:08;;;;;;;4.47;3.00;;;;;;;;;;6155041;23;20020;-71
2022/05/26 12:53:34;;;;;;;12.00;3.65;;;;;;;;;;6155288;23;20005;-73
2022/05/26 12:56:06;;;;;;;14.70;3.00;;;;;;;;;;6155224;23;20033;-73
2022/05/26 12:58:32;;;;;;;29.42;4.15;;;;;;;;;;6155134;23;20004;-74
2022/05/26 13:00:58;;;;;;;33.13;4.90;;;;;;;;;;6155423;23;20005;-71
2022/05/26 13:03:43;;;;;;;7.65;2.70;;;;;;;;;;6155176;23;20013;-66
2022/05/26 13:06:14;;;;;;;14.00;2.90;;;;;;;;;;6155466;23;20011;-73
2022/05/26 13:08:55;;;;;;;34.65;6.50;;;;;;;;;;6155175;23;19998;-73
2022/05/26 13:11:25;;;;;;;11.18;2.80;;;;;;;;;;6155374;23;20019;-69
2022/05/26 13:13:56;;;;;;;50.23;7.10;;;;;;;;;;6155096;23;20033;-72
2022/05/26 13:16:31;;;;;;;9.30;2.90;;;;;;;;;;6155288;23;20441;-72
2022/05/26 13:19:06;;;;;;;4.72;2.75;;;;;;;;;;6155068;23;20015;-73
2022/05/26 13:21:32;;;;;;;19.55;3.88;;;;;;;;;;6155220;23;20425;-73
2022/05/26 13:23:59;;;;;;;26.75;4.38;;;;;;;;;;6154885;23;20001;-74
2022/05/26 13:26:25;;;;;;;16.80;3.70;;;;;;;;;;6155290;23;20355;-73
2022/05/26 13:28:55;;;;;;;17.13;4.72;;;;;;;;;;6154936;23;20013;-73
2022/05/26 13:34:07;;;;;;;11.60;3.08;;;;;;;;;;6154985;23;19908;-71
2022/05/26 13:36:35;;;;;;;14.15;3.85;;;;;;;;;;6155136;23;20049;-73
2022/05/26 13:39:20;;;;;;;12.15;2.83;;;;;;;;;;6154779;23;20010;-73
2022/05/26 13:41:48;;;;;;;9.10;2.70;;;;;;;;;;6155348;23;20084;-70
2022/05/26 13:44:19;;;;;;;11.35;4.35;;;;;;;;;;6154861;23;20303;-73
2022/05/26 13:46:47;;;;;;;7.28;4.22;;;;;;;;;;6128938;23;20014;-73
2022/05/26 13:49:19;;;;;;;17.52;3.67;;;;;;;;;;6155166;23;20005;-71
2022/05/26 13:51:49;;;;;;;22.60;4.45;;;;;;;;;;6156532;23;20330;-71
2022/05/26 13:54:15;;;;;;;4.45;2.60;;;;;;;;;;6156513;23;20013;-70
2022/05/26 13:56:44;;;;;;;14.65;4.50;;;;;;;;;;6156734;23;20024;-72
2022/05/26 13:59:11;;;;;;;14.15;4.30;;;;;;;;;;6156701;23;20008;-74
2022/05/26 14:01:58;;;;;;;22.05;3.63;;;;;;;;;;6156837;23;20001;-73
2022/05/26 14:04:37;;;;;;;8.93;2.83;;;;;;;;;;6136356;23;20390;-73
2022/05/26 14:07:23;;;;;;;6.57;3.10;;;;;;;;;;6156642;23;20009;-71
2022/05/26 14:09:59;;;;;;;9.20;3.10;;;;;;;;;;6156194;23;20445;-72
2022/05/26 14:12:28;;;;;;;33.90;6.07;;;;;;;;;;6157047;23;20006;-72
2022/05/26 14:14:54;;;;;;;8.95;2.80;;;;;;;;;;6156493;23;20068;-71
2022/05/26 14:17:40;;;;;;;11.25;3.45;;;;;;;;;;6156581;23;20001;-72
2022/05/26 14:20:18;;;;;;;10.25;4.38;;;;;;;;;;6130313;23;20005;-71
2022/05/26 14:22:48;;;;;;;9.48;4.93;;;;;;;;;;6156572;23;20008;-72
2022/05/26 14:25:17;;;;;;;13.73;3.50;;;;;;;;;;6156634;23;20060;-72
2022/05/26 14:27:53;;;;;;;10.35;3.10;;;;;;;;;;6156540;23;19998;-74
2022/05/26 14:30:28;;;;;;;7.15;3.38;;;;;;;;;;6156176;23;20013;-72
2022/05/26 14:32:54;;;;;;;25.00;3.95;;;;;;;;;;6156448;23;20081;-73
2022/05/26 14:35:21;;;;;;;11.43;4.13;;;;;;;;;;6156471;23;20029;-73
2022/05/26 14:37:48;;;;;;;21.08;3.83;;;;;;;;;;6156217;23;20006;-71
2022/05/26 14:40:14;;;;;;;15.32;3.92;;;;;;;;;;6156687;23;20125;-72
2022/05/26 14:42:42;;;;;;;14.32;3.65;;;;;;;;;;6156925;23;20016;-73
2022/05/26 14:45:10;;;;;;;30.92;8.95;;;;;;;;;;6156329;23;20064;-73
2022/05/26 14:47:36;;;;;;;15.35;3.78;;;;;;;;;;6156606;23;20029;-73
2022/05/26 14:50:02;;;;;;;50.50;6.40;;;;;;;;;;6156268;23;20081;-73
2022/05/26 14:52:29;;;;;;;11.32;3.47;;;;;;;;;;6156138;23;20444;-69
2022/05/26 14:57:41;;;;;;;6.22;3.50;;;;;;;;;;6156360;23;20512;-67
2022/05/26 15:00:08;;;;;;;34.05;5.30;;;;;;;;;;6156131;23;20005;-73
2022/05/26 15:02:35;;;;;;;10.77;3.85;;;;;;;;;;6155836;23;19998;-72
2022/05/26 15:05:02;;;;;;;11.98;3.15;;;;;;;;;;6156193;23;20006;-69
2022/05/26 15:07:28;;;;;;;15.32;5.22;;;;;;;;;;6156181;23;20516;-70
2022/05/26 15:09:54;;;;;;;46.35;6.32;;;;;;;;;;6155860;23;20037;-72
2022/05/26 15:12:20;;;;;;;65.55;7.30;;;;;;;;;;6156568;23;20048;-67
2022/05/26 15:14:46;;;;;;;8.55;3.30;;;;;;;;;;6156410;23;20029;-72
2022/05/26 15:17:15;;;;;;;29.75;6.70;;;;;;;;;;6156042;23;20025;-69
2022/05/26 15:19:46;;;;;;;12.98;3.80;;;;;;;;;;6156323;23;20325;-70
2022/05/26 15:22:13;;;;;;;8.57;3.05;;;;;;;;;;6130415;23;20001;-71
2022/05/26 15:24:40;;;;;;;11.90;3.28;;;;;;;;;;6155912;23;20011;-71
2022/05/26 15:27:06;;;;;;;22.10;4.10;;;;;;;;;;6155913;23;20001;-71